Wilson Heron — 9HJW9 — position and weather

sailwx.info

Track history (hours):
 
Tides and Currents Weather Stations Pressure Air Temp Water Temp Dewpoint Dewpoint Depression Visibility Wind Speed Wind Dir Waves Ship Positions

Wilson Heron

Last reported at 2017-Mar-30 16:05 UTC. Time now 2017-Mar-31 00:36 UTC.
Position N 51°60' W 005°52'.

Length 91 m; draft 5.9 m.

Type: Cargo ship. MMSI: 249075000.

Date/timePositionNaut miles runAvg speedWind from/ knotsBaromVisibWave heightAir tempDewpointWater temp
2017-Mar-30 16:05N 51°60' W 005°52'611.0
2017-Mar-30 15:33N 52°05' W 005°50'1111.2
2017-Mar-30 14:33N 52°16' W 005°47'1110.5
2017-Mar-30 13:33N 52°27' W 005°44'97 7.4
2017-Mar-30 00:24N 54°02' W 005°21'6 7.4
2017-Mar-29 23:33N 54°09' W 005°19'8 8.2
2017-Mar-29 22:33N 54°17' W 005°18'9 9.0
2017-Mar-29 21:33N 54°26' W 005°17'1110.8
2017-Mar-29 20:33N 54°36' W 005°19'1211.7
2017-Mar-29 19:33N 54°47' W 005°27'1111.1
2017-Mar-29 18:33N 54°57' W 005°37'19 7.9
2017-Mar-29 16:08N 55°12' W 005°55'3 4.6
2017-Mar-29 15:33N 55°15' W 005°58'4 3.5
2017-Mar-29 14:33N 55°17' W 006°02'6 5.7
2017-Mar-29 13:33N 55°21' W 006°09'8 7.8
2017-Mar-29 12:33N 55°26' W 006°20'9 8.6
2017-Mar-29 11:33N 55°33' W 006°29'1010.0
2017-Mar-29 10:33N 55°41' W 006°40'223 8.9
2017-Mar-28 09:33N 59°07' W 004°02'10 9.7
2017-Mar-28 08:33N 59°13' W 003°48'294 9.5
2017-Mar-27 01:33N 61°59' E 004°27'8 8.3
2017-Mar-27 00:33N 62°05' E 004°39'8 8.1
2017-Mar-26 23:32N 62°11' E 004°51'8 7.8
2017-Mar-26 22:33N 62°17' E 005°01'7 7.4
2017-Mar-26 21:33N 62°23' E 005°12'7 7.3
2017-Mar-26 20:33N 62°28' E 005°22'8 7.7
2017-Mar-26 19:33N 62°34' E 005°33'8 7.9
2017-Mar-26 18:33N 62°40' E 005°44'7 7.4
2017-Mar-26 17:33N 62°45' E 005°55'7 7.3
2017-Mar-26 16:33N 62°51' E 006°06'7 7.4
2017-Mar-26 15:33N 62°56' E 006°17'8 7.5
2017-Mar-26 14:32N 63°01' E 006°30'8 8.1
2017-Mar-26 13:33N 63°07' E 006°42'8 7.6
2017-Mar-26 12:32N 63°13' E 006°53'7 6.7
2017-Mar-26 11:33N 63°17' E 007°04'6 6.3
2017-Mar-26 10:33N 63°22' E 007°13'6 6.3
2017-Mar-26 09:33N 63°27' E 007°22'6 6.0
2017-Mar-26 08:33N 63°31' E 007°31'5 4.6
2017-Mar-26 07:33N 63°34' E 007°39'4 4.1
2017-Mar-26 06:33N 63°37' E 007°46'5 5.0
2017-Mar-26 05:33N 63°41' E 007°54'6 5.8
2017-Mar-26 04:33N 63°45' E 008°02'5 5.2
2017-Mar-26 03:33N 63°49' E 008°09'5 4.7
2017-Mar-26 02:33N 63°53' E 008°15'4 4.2
2017-Mar-26 01:33N 63°56' E 008°22'4 4.2
2017-Mar-26 00:33N 63°59' E 008°29'87 5.6
2017-Mar-25 09:11N 65°09' E 010°27'5 7.5
2017-Mar-25 08:33N 65°13' E 010°31'69 6.3
2017-Mar-24 21:33N 66°15' E 011°45'6 6.0
2017-Mar-24 20:33N 66°16' E 011°60'6 6.4
2017-Mar-24 19:33N 66°17' E 012°15'8 8.0
2017-Mar-24 18:33N 66°15' E 012°35'9 8.6
2017-Mar-24 17:33N 66°20' E 012°52'9 9.0
2017-Mar-24 16:33N 66°29' E 012°59'9 8.9
2017-Mar-24 15:33N 66°37' E 013°05'10 9.5
2017-Mar-24 14:33N 66°46' E 013°14'10 9.9
2017-Mar-24 13:33N 66°49' E 013°38'7 0.3
2017-Mar-23 17:29N 66°48' E 013°55'1010.7
2017-Mar-23 16:33N 66°49' E 013°30'1410.2
2017-Mar-23 15:11N 66°38' E 013°06'6 9.6
2017-Mar-23 14:33N 66°33' E 013°01'9 9.6
2017-Mar-23 13:33N 66°23' E 012°58'1010.1
2017-Mar-23 12:32N 66°13' E 012°55'4 4.2
2017-Mar-23 11:33N 66°14' E 013°05'0 0.1
2017-Mar-23 10:33N 66°14' E 013°05'0 0.0
2017-Mar-23 09:33N 66°14' E 013°05'0 0.0
2017-Mar-23 08:33N 66°14' E 013°05'0 0.0
2017-Mar-23 07:33N 66°14' E 013°05'0 0.1
2017-Mar-23 06:33N 66°14' E 013°05'0 0.0
2017-Mar-23 05:33N 66°14' E 013°05'0 0.0
2017-Mar-23 04:33N 66°14' E 013°05'0 0.0
2017-Mar-23 03:33N 66°14' E 013°05'0 0.0
2017-Mar-23 02:33N 66°14' E 013°05'0 0.1
2017-Mar-23 01:33N 66°14' E 013°05'0 0.0
2017-Mar-23 00:33N 66°14' E 013°05'0 0.0
2017-Mar-22 23:33N 66°14' E 013°05'0 0.0
2017-Mar-22 22:33N 66°14' E 013°05'0 0.0
2017-Mar-22 21:33N 66°14' E 013°05'0 0.0
2017-Mar-22 20:33N 66°14' E 013°05'0 0.0
2017-Mar-22 19:33N 66°14' E 013°05'0 0.0
2017-Mar-22 18:33N 66°14' E 013°05'0 0.0
2017-Mar-22 17:33N 66°14' E 013°05'0 0.0
2017-Mar-22 16:33N 66°14' E 013°05'0 0.0
2017-Mar-22 15:33N 66°14' E 013°05'0 0.0
2017-Mar-22 14:33N 66°14' E 013°05'0 0.0
2017-Mar-22 13:33N 66°14' E 013°05'0 0.0
2017-Mar-22 12:33N 66°14' E 013°05'0 0.1
2017-Mar-22 11:30N 66°14' E 013°04'0 0.1
2017-Mar-22 10:33N 66°14' E 013°04'0 0.0
2017-Mar-22 09:33N 66°14' E 013°04'0 0.0
2017-Mar-22 08:33N 66°14' E 013°04'0 0.1
2017-Mar-22 07:33N 66°14' E 013°04'0 0.1
2017-Mar-22 06:33N 66°14' E 013°04'0 0.1
2017-Mar-22 05:33N 66°14' E 013°04'0 0.0
2017-Mar-22 04:33N 66°14' E 013°04'0 0.0
2017-Mar-22 03:33N 66°14' E 013°04'0 0.0
2017-Mar-22 02:33N 66°14' E 013°04'0 0.0
2017-Mar-22 01:33N 66°14' E 013°04'0 0.0
2017-Mar-22 00:33N 66°14' E 013°04'0 0.0
2017-Mar-21 23:33N 66°14' E 013°04'0 0.0
2017-Mar-21 22:33N 66°14' E 013°04'0 0.0
2017-Mar-21 21:33N 66°14' E 013°04'0 0.1
2017-Mar-21 20:33N 66°14' E 013°04'0 0.0
2017-Mar-21 19:33N 66°14' E 013°04'0 0.0
2017-Mar-21 18:33N 66°14' E 013°04'0 0.0
2017-Mar-21 17:33N 66°14' E 013°04'0 0.0
2017-Mar-21 16:33N 66°14' E 013°04'0 0.2
2017-Mar-21 15:33N 66°14' E 013°04'6 5.9
2017-Mar-21 14:33N 66°09' E 012°55'1211.5
2017-Mar-21 13:33N 66°14' E 013°22'1111.3
2017-Mar-21 12:33N 66°15' E 013°49'8 7.4
2017-Mar-21 11:32N 66°18' E 014°07'0 0.0
2017-Mar-21 10:32N 66°18' E 014°07'0 0.0
2017-Mar-21 09:32N 66°18' E 014°07'0 0.0
2017-Mar-21 08:32N 66°18' E 014°07'0 0.0
2017-Mar-21 07:32N 66°18' E 014°07'0 0.0
2017-Mar-21 06:32N 66°18' E 014°07'0 0.0
2017-Mar-21 05:32N 66°18' E 014°07'0 0.0
2017-Mar-21 04:32N 66°18' E 014°07'0 0.0
2017-Mar-21 03:32N 66°18' E 014°07'0 0.0
2017-Mar-21 02:32N 66°18' E 014°07'0 0.0
2017-Mar-21 01:32N 66°18' E 014°07'0 0.0
2017-Mar-21 00:31N 66°18' E 014°07'0 0.0
2017-Mar-20 23:32N 66°18' E 014°07'0 0.0
2017-Mar-20 22:32N 66°18' E 014°07'0 0.0
2017-Mar-20 21:32N 66°18' E 014°07'0 0.0
2017-Mar-20 20:32N 66°18' E 014°07'0 0.0
2017-Mar-20 19:32N 66°18' E 014°07'0 0.0
2017-Mar-20 18:32N 66°18' E 014°07'0 0.0
2017-Mar-20 17:32N 66°18' E 014°07'0 0.0
2017-Mar-20 16:32N 66°18' E 014°07'  
Track history (hours):
 
Tides and Currents Weather Stations Pressure Air Temp Water Temp Dewpoint Dewpoint Depression Visibility Wind Speed Wind Dir Waves Ship Positions

Wilson Heron

Last reported at 2017-Mar-30 16:05 UTC. Time now 2017-Mar-31 00:36 UTC.
Position N 51°60' W 005°52'.

Length 91 m; draft 5.9 m.

Type: Cargo ship. MMSI: 249075000.

Date/timePositionNaut miles runAvg speedWind from/ knotsBaromVisibWave heightAir tempDewpointWater temp
2017-Mar-30 16:05N 51°60' W 005°52'611.0
2017-Mar-30 15:33N 52°05' W 005°50'1111.2
2017-Mar-30 14:33N 52°16' W 005°47'1110.5
2017-Mar-30 13:33N 52°27' W 005°44'97 7.4
2017-Mar-30 00:24N 54°02' W 005°21'6 7.4
2017-Mar-29 23:33N 54°09' W 005°19'8 8.2
2017-Mar-29 22:33N 54°17' W 005°18'9 9.0
2017-Mar-29 21:33N 54°26' W 005°17'1110.8
2017-Mar-29 20:33N 54°36' W 005°19'1211.7
2017-Mar-29 19:33N 54°47' W 005°27'1111.1
2017-Mar-29 18:33N 54°57' W 005°37'19 7.9
2017-Mar-29 16:08N 55°12' W 005°55'3 4.6
2017-Mar-29 15:33N 55°15' W 005°58'4 3.5
2017-Mar-29 14:33N 55°17' W 006°02'6 5.7
2017-Mar-29 13:33N 55°21' W 006°09'8 7.8
2017-Mar-29 12:33N 55°26' W 006°20'9 8.6
2017-Mar-29 11:33N 55°33' W 006°29'1010.0
2017-Mar-29 10:33N 55°41' W 006°40'223 8.9
2017-Mar-28 09:33N 59°07' W 004°02'10 9.7
2017-Mar-28 08:33N 59°13' W 003°48'294 9.5
2017-Mar-27 01:33N 61°59' E 004°27'8 8.3
2017-Mar-27 00:33N 62°05' E 004°39'8 8.1
2017-Mar-26 23:32N 62°11' E 004°51'8 7.8
2017-Mar-26 22:33N 62°17' E 005°01'7 7.4
2017-Mar-26 21:33N 62°23' E 005°12'7 7.3
2017-Mar-26 20:33N 62°28' E 005°22'8 7.7
2017-Mar-26 19:33N 62°34' E 005°33'8 7.9
2017-Mar-26 18:33N 62°40' E 005°44'7 7.4
2017-Mar-26 17:33N 62°45' E 005°55'7 7.3
2017-Mar-26 16:33N 62°51' E 006°06'7 7.4
2017-Mar-26 15:33N 62°56' E 006°17'8 7.5
2017-Mar-26 14:32N 63°01' E 006°30'8 8.1
2017-Mar-26 13:33N 63°07' E 006°42'8 7.6
2017-Mar-26 12:32N 63°13' E 006°53'7 6.7
2017-Mar-26 11:33N 63°17' E 007°04'6 6.3
2017-Mar-26 10:33N 63°22' E 007°13'6 6.3
2017-Mar-26 09:33N 63°27' E 007°22'6 6.0
2017-Mar-26 08:33N 63°31' E 007°31'5 4.6
2017-Mar-26 07:33N 63°34' E 007°39'4 4.1
2017-Mar-26 06:33N 63°37' E 007°46'5 5.0
2017-Mar-26 05:33N 63°41' E 007°54'6 5.8
2017-Mar-26 04:33N 63°45' E 008°02'5 5.2
2017-Mar-26 03:33N 63°49' E 008°09'5 4.7
2017-Mar-26 02:33N 63°53' E 008°15'4 4.2
2017-Mar-26 01:33N 63°56' E 008°22'4 4.2
2017-Mar-26 00:33N 63°59' E 008°29'87 5.6
2017-Mar-25 09:11N 65°09' E 010°27'5 7.5
2017-Mar-25 08:33N 65°13' E 010°31'69 6.3
2017-Mar-24 21:33N 66°15' E 011°45'6 6.0
2017-Mar-24 20:33N 66°16' E 011°60'6 6.4
2017-Mar-24 19:33N 66°17' E 012°15'8 8.0
2017-Mar-24 18:33N 66°15' E 012°35'9 8.6
2017-Mar-24 17:33N 66°20' E 012°52'9 9.0
2017-Mar-24 16:33N 66°29' E 012°59'9 8.9
2017-Mar-24 15:33N 66°37' E 013°05'10 9.5
2017-Mar-24 14:33N 66°46' E 013°14'10 9.9
2017-Mar-24 13:33N 66°49' E 013°38'7 0.3
2017-Mar-23 17:29N 66°48' E 013°55'1010.7
2017-Mar-23 16:33N 66°49' E 013°30'1410.2
2017-Mar-23 15:11N 66°38' E 013°06'6 9.6
2017-Mar-23 14:33N 66°33' E 013°01'9 9.6
2017-Mar-23 13:33N 66°23' E 012°58'1010.1
2017-Mar-23 12:32N 66°13' E 012°55'4 4.2
2017-Mar-23 11:33N 66°14' E 013°05'0 0.1
2017-Mar-23 10:33N 66°14' E 013°05'0 0.0
2017-Mar-23 09:33N 66°14' E 013°05'0 0.0
2017-Mar-23 08:33N 66°14' E 013°05'0 0.0
2017-Mar-23 07:33N 66°14' E 013°05'0 0.1
2017-Mar-23 06:33N 66°14' E 013°05'0 0.0
2017-Mar-23 05:33N 66°14' E 013°05'0 0.0
2017-Mar-23 04:33N 66°14' E 013°05'0 0.0
2017-Mar-23 03:33N 66°14' E 013°05'0 0.0
2017-Mar-23 02:33N 66°14' E 013°05'0 0.1
2017-Mar-23 01:33N 66°14' E 013°05'0 0.0
2017-Mar-23 00:33N 66°14' E 013°05'0 0.0
2017-Mar-22 23:33N 66°14' E 013°05'0 0.0
2017-Mar-22 22:33N 66°14' E 013°05'0 0.0
2017-Mar-22 21:33N 66°14' E 013°05'0 0.0
2017-Mar-22 20:33N 66°14' E 013°05'0 0.0
2017-Mar-22 19:33N 66°14' E 013°05'0 0.0
2017-Mar-22 18:33N 66°14' E 013°05'0 0.0
2017-Mar-22 17:33N 66°14' E 013°05'0 0.0
2017-Mar-22 16:33N 66°14' E 013°05'0 0.0
2017-Mar-22 15:33N 66°14' E 013°05'0 0.0
2017-Mar-22 14:33N 66°14' E 013°05'0 0.0
2017-Mar-22 13:33N 66°14' E 013°05'0 0.0
2017-Mar-22 12:33N 66°14' E 013°05'0 0.1
2017-Mar-22 11:30N 66°14' E 013°04'0 0.1
2017-Mar-22 10:33N 66°14' E 013°04'0 0.0
2017-Mar-22 09:33N 66°14' E 013°04'0 0.0
2017-Mar-22 08:33N 66°14' E 013°04'0 0.1
2017-Mar-22 07:33N 66°14' E 013°04'0 0.1
2017-Mar-22 06:33N 66°14' E 013°04'0 0.1
2017-Mar-22 05:33N 66°14' E 013°04'0 0.0
2017-Mar-22 04:33N 66°14' E 013°04'0 0.0
2017-Mar-22 03:33N 66°14' E 013°04'0 0.0
2017-Mar-22 02:33N 66°14' E 013°04'0 0.0
2017-Mar-22 01:33N 66°14' E 013°04'0 0.0
2017-Mar-22 00:33N 66°14' E 013°04'0 0.0
2017-Mar-21 23:33N 66°14' E 013°04'0 0.0
2017-Mar-21 22:33N 66°14' E 013°04'0 0.0
2017-Mar-21 21:33N 66°14' E 013°04'0 0.1
2017-Mar-21 20:33N 66°14' E 013°04'0 0.0
2017-Mar-21 19:33N 66°14' E 013°04'0 0.0
2017-Mar-21 18:33N 66°14' E 013°04'0 0.0
2017-Mar-21 17:33N 66°14' E 013°04'0 0.0
2017-Mar-21 16:33N 66°14' E 013°04'0 0.2
2017-Mar-21 15:33N 66°14' E 013°04'6 5.9
2017-Mar-21 14:33N 66°09' E 012°55'1211.5
2017-Mar-21 13:33N 66°14' E 013°22'1111.3
2017-Mar-21 12:33N 66°15' E 013°49'8 7.4
2017-Mar-21 11:32N 66°18' E 014°07'0 0.0
2017-Mar-21 10:32N 66°18' E 014°07'0 0.0
2017-Mar-21 09:32N 66°18' E 014°07'0 0.0
2017-Mar-21 08:32N 66°18' E 014°07'0 0.0
2017-Mar-21 07:32N 66°18' E 014°07'0 0.0
2017-Mar-21 06:32N 66°18' E 014°07'0 0.0
2017-Mar-21 05:32N 66°18' E 014°07'0 0.0
2017-Mar-21 04:32N 66°18' E 014°07'0 0.0
2017-Mar-21 03:32N 66°18' E 014°07'0 0.0
2017-Mar-21 02:32N 66°18' E 014°07'0 0.0
2017-Mar-21 01:32N 66°18' E 014°07'0 0.0
2017-Mar-21 00:31N 66°18' E 014°07'0 0.0
2017-Mar-20 23:32N 66°18' E 014°07'0 0.0
2017-Mar-20 22:32N 66°18' E 014°07'0 0.0
2017-Mar-20 21:32N 66°18' E 014°07'0 0.0
2017-Mar-20 20:32N 66°18' E 014°07'0 0.0
2017-Mar-20 19:32N 66°18' E 014°07'0 0.0
2017-Mar-20 18:32N 66°18' E 014°07'0 0.0
2017-Mar-20 17:32N 66°18' E 014°07'0 0.0
2017-Mar-20 16:32N 66°18' E 014°07'  

Dump ship's entire track history